Time;durP1;ratioP1;P1;durP2;ratioP2;P2;SDS_P1;SDS_P2;PMS_P1;PMS_P2;Temp;Humidity;BMP_temperature;BMP_pressure;BME280_temperature;BME280_humidity;BME280_pressure;Samples;Min_cycle;Max_cycle;Signal;HPM_P1;HPM_P2
2021/08/27 00:02:09;;;;;;;8.25;1.42;;;;;;;;;;5031145;28;20041;-66
2021/08/27 00:04:35;;;;;;;7.85;1.10;;;;;;;;;;5029951;28;20124;-67
2021/08/27 00:07:01;;;;;;;8.15;1.38;;;;;;;;;;5031615;28;20118;-66
2021/08/27 00:09:27;;;;;;;7.72;1.25;;;;;;;;;;5025181;28;20033;-66
2021/08/27 00:11:53;;;;;;;7.07;1.98;;;;;;;;;;5033091;28;20124;-67
2021/08/27 00:14:20;;;;;;;7.18;1.27;;;;;;;;;;5032238;28;20440;-66
2021/08/27 00:16:46;;;;;;;6.32;1.17;;;;;;;;;;5039622;28;20056;-66
2021/08/27 00:19:12;;;;;;;10.88;1.92;;;;;;;;;;5026913;28;20037;-66
2021/08/27 00:21:38;;;;;;;6.40;1.40;;;;;;;;;;5033459;28;20045;-66
2021/08/27 00:24:06;;;;;;;10.20;1.45;;;;;;;;;;5027707;28;20037;-66
2021/08/27 00:26:32;;;;;;;10.30;1.48;;;;;;;;;;5034079;28;20052;-66
2021/08/27 00:28:58;;;;;;;10.65;1.60;;;;;;;;;;5027242;28;20064;-66
2021/08/27 00:31:24;;;;;;;7.35;1.60;;;;;;;;;;5039731;28;20041;-66
2021/08/27 00:33:50;;;;;;;9.02;1.80;;;;;;;;;;5028585;28;20034;-66
2021/08/27 00:36:17;;;;;;;10.68;1.45;;;;;;;;;;5036505;28;20163;-66
2021/08/27 00:38:43;;;;;;;8.15;1.60;;;;;;;;;;5035569;28;20049;-66
2021/08/27 00:41:09;;;;;;;5.97;1.35;;;;;;;;;;5031440;28;20041;-66
2021/08/27 00:43:35;;;;;;;11.52;1.73;;;;;;;;;;5032676;28;20037;-66
2021/08/27 00:46:01;;;;;;;11.82;1.23;;;;;;;;;;5029099;28;20083;-67
2021/08/27 00:48:27;;;;;;;10.77;1.60;;;;;;;;;;5042598;28;20045;-67
2021/08/27 00:50:53;;;;;;;7.57;1.38;;;;;;;;;;5028422;28;20060;-67
2021/08/27 00:53:19;;;;;;;11.30;1.75;;;;;;;;;;5037060;28;20036;-67
2021/08/27 00:55:46;;;;;;;9.70;1.40;;;;;;;;;;5033522;28;20063;-67
2021/08/27 00:58:13;;;;;;;8.52;1.35;;;;;;;;;;5035229;28;20040;-66
2021/08/27 01:00:39;;;;;;;10.80;1.92;;;;;;;;;;5030613;28;20485;-66
2021/08/27 01:03:05;;;;;;;5.97;1.45;;;;;;;;;;5038688;28;20144;-67
2021/08/27 01:05:32;;;;;;;6.28;1.30;;;;;;;;;;5030053;28;20041;-67
2021/08/27 01:07:58;;;;;;;9.23;2.30;;;;;;;;;;5043015;28;20049;-66
2021/08/27 01:10:24;;;;;;;6.47;1.60;;;;;;;;;;5028487;28;20060;-66
2021/08/27 01:13:09;;;;;;;8.05;1.60;;;;;;;;;;5032788;28;20048;-66
2021/08/27 01:15:42;;;;;;;11.18;1.90;;;;;;;;;;5030877;28;20033;-66
2021/08/27 01:18:14;;;;;;;8.23;1.98;;;;;;;;;;5034378;28;20068;-66
2021/08/27 01:21:00;;;;;;;11.15;1.80;;;;;;;;;;5030998;28;20116;-66
2021/08/27 01:23:26;;;;;;;9.13;1.60;;;;;;;;;;5033060;28;20048;-66
2021/08/27 01:25:54;;;;;;;8.40;1.70;;;;;;;;;;5033728;28;20041;-66
2021/08/27 01:28:21;;;;;;;7.18;1.75;;;;;;;;;;5040729;28;20393;-66
2021/08/27 01:31:07;;;;;;;11.57;2.15;;;;;;;;;;5033685;28;20052;-66
2021/08/27 01:33:34;;;;;;;7.40;1.80;;;;;;;;;;5037106;28;20556;-66
2021/08/27 01:36:01;;;;;;;7.60;1.98;;;;;;;;;;5037787;28;20091;-66
2021/08/27 01:38:32;;;;;;;8.63;2.33;;;;;;;;;;5030976;28;20048;-66
2021/08/27 01:40:58;;;;;;;10.10;1.95;;;;;;;;;;5039203;28;20045;-66
2021/08/27 01:43:25;;;;;;;4.82;1.33;;;;;;;;;;5026939;28;20454;-66
2021/08/27 01:45:53;;;;;;;10.45;1.65;;;;;;;;;;5037613;28;20045;-66
2021/08/27 01:48:20;;;;;;;7.78;1.70;;;;;;;;;;5031057;28;20350;-66
2021/08/27 01:50:46;;;;;;;9.35;2.22;;;;;;;;;;5035502;28;20065;-66
2021/08/27 01:53:13;;;;;;;7.57;1.50;;;;;;;;;;5032317;28;20043;-67
2021/08/27 01:55:39;;;;;;;10.18;1.92;;;;;;;;;;5038110;28;20079;-67
2021/08/27 01:58:06;;;;;;;10.75;1.88;;;;;;;;;;5030175;28;20044;-67
2021/08/27 02:00:32;;;;;;;7.25;1.60;;;;;;;;;;5034184;28;20512;-67
2021/08/27 02:02:58;;;;;;;7.63;1.50;;;;;;;;;;5029492;28;20405;-67
2021/08/27 02:05:25;;;;;;;6.78;1.55;;;;;;;;;;5035864;28;20361;-67
2021/08/27 02:07:52;;;;;;;8.57;1.58;;;;;;;;;;5029265;28;20037;-67
2021/08/27 02:10:18;;;;;;;9.90;1.83;;;;;;;;;;5033936;28;20055;-66
2021/08/27 02:12:44;;;;;;;11.38;1.95;;;;;;;;;;5031193;28;20045;-66
2021/08/27 02:15:11;;;;;;;8.35;1.55;;;;;;;;;;5034637;28;20516;-66
2021/08/27 02:17:38;;;;;;;10.55;2.42;;;;;;;;;;5032959;28;20033;-66
2021/08/27 02:20:04;;;;;;;7.35;1.73;;;;;;;;;;5025359;28;20044;-66
2021/08/27 02:22:31;;;;;;;7.88;1.50;;;;;;;;;;5035613;28;20500;-66
2021/08/27 02:25:00;;;;;;;11.15;1.80;;;;;;;;;;5031640;28;20040;-66
2021/08/27 02:27:27;;;;;;;8.32;1.42;;;;;;;;;;5032811;28;20041;-66
2021/08/27 02:29:55;;;;;;;16.55;2.50;;;;;;;;;;5031895;28;20045;-66
2021/08/27 02:32:22;;;;;;;11.15;2.58;;;;;;;;;;5039477;28;20075;-66
2021/08/27 02:34:48;;;;;;;8.02;1.85;;;;;;;;;;5028857;28;20068;-66
2021/08/27 02:37:16;;;;;;;9.27;1.60;;;;;;;;;;5036224;28;20047;-66
2021/08/27 02:39:42;;;;;;;9.60;2.40;;;;;;;;;;5029055;28;20048;-67
2021/08/27 02:42:09;;;;;;;6.32;1.83;;;;;;;;;;5034665;28;20042;-67
2021/08/27 02:44:35;;;;;;;8.05;1.60;;;;;;;;;;5033043;28;20056;-66
2021/08/27 02:47:02;;;;;;;9.55;1.65;;;;;;;;;;5039188;28;20280;-66
2021/08/27 02:49:28;;;;;;;8.88;1.90;;;;;;;;;;5029358;28;20049;-66
2021/08/27 02:52:09;;;;;;;9.32;2.33;;;;;;;;;;5033929;28;20049;-66
2021/08/27 02:54:43;;;;;;;17.77;2.15;;;;;;;;;;5030362;28;22330;-66
2021/08/27 02:57:09;;;;;;;9.50;1.70;;;;;;;;;;5038820;28;20090;-65
2021/08/27 02:59:35;;;;;;;8.77;2.33;;;;;;;;;;5028249;28;20041;-65
2021/08/27 03:02:03;;;;;;;9.35;1.80;;;;;;;;;;5033036;28;20048;-65
2021/08/27 03:04:38;;;;;;;8.57;1.73;;;;;;;;;;5032762;28;20049;-66
2021/08/27 03:07:05;;;;;;;9.20;2.05;;;;;;;;;;5035327;28;20041;-65
2021/08/27 03:09:34;;;;;;;9.52;1.92;;;;;;;;;;5033185;28;20544;-65
2021/08/27 03:12:02;;;;;;;7.75;1.55;;;;;;;;;;5028778;28;20040;-65
2021/08/27 03:14:34;;;;;;;8.80;1.63;;;;;;;;;;5034661;28;20044;-65
2021/08/27 03:17:03;;;;;;;7.68;1.58;;;;;;;;;;5031083;28;20033;-65
2021/08/27 03:19:32;;;;;;;7.85;2.00;;;;;;;;;;5036750;28;20056;-65
2021/08/27 03:22:17;;;;;;;8.95;2.33;;;;;;;;;;5033808;28;20532;-65
2021/08/27 03:24:48;;;;;;;8.88;1.90;;;;;;;;;;5036337;28;20036;-65
2021/08/27 03:27:20;;;;;;;8.85;1.45;;;;;;;;;;5029172;28;20575;-65
2021/08/27 03:29:49;;;;;;;13.57;2.28;;;;;;;;;;5036332;28;20049;-65
2021/08/27 03:32:15;;;;;;;6.88;1.55;;;;;;;;;;5029451;28;20029;-65
2021/08/27 03:34:43;;;;;;;6.85;1.30;;;;;;;;;;5031617;28;20134;-65
2021/08/27 03:37:10;;;;;;;5.88;1.30;;;;;;;;;;5031319;28;20037;-65
2021/08/27 03:39:37;;;;;;;5.45;1.23;;;;;;;;;;5031027;28;20072;-65
2021/08/27 03:42:03;;;;;;;2.97;1.08;;;;;;;;;;5026026;28;20121;-65
2021/08/27 03:44:31;;;;;;;8.05;1.05;;;;;;;;;;5032882;28;20176;-65
2021/08/27 03:46:57;;;;;;;6.07;0.93;;;;;;;;;;5033952;28;20496;-65
2021/08/27 03:49:24;;;;;;;5.32;1.30;;;;;;;;;;5032494;28;20057;-66
2021/08/27 03:51:50;;;;;;;4.10;1.20;;;;;;;;;;5030919;28;20052;-66
2021/08/27 03:54:18;;;;;;;5.78;1.48;;;;;;;;;;5036355;28;20114;-66
2021/08/27 03:56:44;;;;;;;3.13;0.88;;;;;;;;;;5030973;28;20124;-65
2021/08/27 03:59:11;;;;;;;3.67;1.10;;;;;;;;;;5033297;28;20033;-65
2021/08/27 04:01:38;;;;;;;7.47;1.23;;;;;;;;;;5037996;28;20045;-65
2021/08/27 04:04:05;;;;;;;5.95;1.30;;;;;;;;;;5035697;28;20045;-65
2021/08/27 04:06:31;;;;;;;4.03;1.13;;;;;;;;;;5033119;28;20370;-65
2021/08/27 04:08:57;;;;;;;3.70;0.93;;;;;;;;;;5026116;28;20046;-66
2021/08/27 04:11:23;;;;;;;5.20;1.10;;;;;;;;;;5038299;28;20029;-66
2021/08/27 04:13:49;;;;;;;4.60;1.48;;;;;;;;;;5035067;28;20046;-66
2021/08/27 04:16:15;;;;;;;5.47;1.40;;;;;;;;;;5036229;28;20042;-66
2021/08/27 04:18:41;;;;;;;5.20;1.33;;;;;;;;;;5031884;28;20365;-66
2021/08/27 04:21:07;;;;;;;7.70;1.88;;;;;;;;;;5043592;28;20095;-66
2021/08/27 04:23:33;;;;;;;5.93;1.35;;;;;;;;;;5031849;28;20037;-66
2021/08/27 04:26:00;;;;;;;4.80;1.42;;;;;;;;;;5037164;28;20485;-66
2021/08/27 04:28:26;;;;;;;6.30;1.67;;;;;;;;;;5032682;28;20033;-66
2021/08/27 04:30:52;;;;;;;7.07;1.40;;;;;;;;;;5038413;28;20041;-66
2021/08/27 04:33:18;;;;;;;6.28;1.80;;;;;;;;;;5032590;28;20045;-66
2021/08/27 04:35:44;;;;;;;6.15;1.35;;;;;;;;;;5036096;28;20132;-66
2021/08/27 04:38:11;;;;;;;7.88;1.75;;;;;;;;;;5035649;28;20107;-66
2021/08/27 04:40:37;;;;;;;5.72;1.80;;;;;;;;;;5036762;28;20049;-66
2021/08/27 04:43:03;;;;;;;6.88;1.73;;;;;;;;;;5034945;28;20045;-66
2021/08/27 04:45:29;;;;;;;4.65;1.33;;;;;;;;;;5035001;28;20054;-66
2021/08/27 04:47:55;;;;;;;9.73;1.67;;;;;;;;;;5036044;28;20056;-66
2021/08/27 04:50:21;;;;;;;4.93;1.13;;;;;;;;;;5029568;28;20045;-66
2021/08/27 04:52:47;;;;;;;6.32;1.40;;;;;;;;;;5039235;28;20057;-66
2021/08/27 04:55:13;;;;;;;5.40;1.48;;;;;;;;;;5031648;28;20033;-66
2021/08/27 04:57:40;;;;;;;6.53;1.50;;;;;;;;;;5036037;28;20726;-67
2021/08/27 05:00:08;;;;;;;5.60;1.45;;;;;;;;;;5032806;28;20499;-67
2021/08/27 05:02:35;;;;;;;13.05;1.88;;;;;;;;;;5035885;28;20045;-67
2021/08/27 05:05:01;;;;;;;7.45;1.15;;;;;;;;;;5037737;28;20052;-67
2021/08/27 05:07:27;;;;;;;9.85;1.40;;;;;;;;;;5032854;28;20072;-67
2021/08/27 05:09:53;;;;;;;6.78;1.10;;;;;;;;;;5028666;28;20041;-67
2021/08/27 05:12:19;;;;;;;4.35;1.10;;;;;;;;;;5042148;28;20041;-67
2021/08/27 05:14:45;;;;;;;5.07;1.70;;;;;;;;;;5035260;28;20045;-67
2021/08/27 05:17:11;;;;;;;4.63;1.20;;;;;;;;;;5035384;28;20044;-67
2021/08/27 05:19:37;;;;;;;9.05;1.75;;;;;;;;;;5036590;28;20116;-67
2021/08/27 05:22:04;;;;;;;7.80;1.33;;;;;;;;;;5035259;28;20186;-68
2021/08/27 05:24:30;;;;;;;7.75;1.40;;;;;;;;;;5032324;28;20102;-68
2021/08/27 05:26:56;;;;;;;5.75;1.45;;;;;;;;;;5029198;28;20541;-68
2021/08/27 05:29:22;;;;;;;5.50;1.10;;;;;;;;;;5036951;28;20069;-68
2021/08/27 05:31:48;;;;;;;6.20;1.35;;;;;;;;;;5030413;28;20033;-68
2021/08/27 05:34:14;;;;;;;6.57;1.38;;;;;;;;;;5033999;28;20033;-68
2021/08/27 05:36:40;;;;;;;8.85;1.75;;;;;;;;;;5030350;28;20378;-68
2021/08/27 05:39:06;;;;;;;7.57;1.83;;;;;;;;;;5034412;28;20148;-68
2021/08/27 05:41:35;;;;;;;7.65;2.47;;;;;;;;;;5026918;28;20230;-68
2021/08/27 05:44:01;;;;;;;13.38;2.38;;;;;;;;;;5034658;28;20048;-68
2021/08/27 05:46:27;;;;;;;7.95;2.80;;;;;;;;;;5031037;28;20037;-68
2021/08/27 05:48:54;;;;;;;11.60;3.95;;;;;;;;;;5036220;28;20108;-68
2021/08/27 05:51:20;;;;;;;9.52;4.03;;;;;;;;;;5032500;28;20057;-67
2021/08/27 05:53:46;;;;;;;11.30;3.75;;;;;;;;;;5035538;28;20044;-68
2021/08/27 05:56:12;;;;;;;10.68;3.55;;;;;;;;;;5034348;28;20037;-68
2021/08/27 05:58:38;;;;;;;10.82;3.85;;;;;;;;;;5030610;28;20033;-68
2021/08/27 06:01:06;;;;;;;12.32;3.75;;;;;;;;;;5035370;28;20044;-68
2021/08/27 06:03:33;;;;;;;9.73;3.50;;;;;;;;;;5030903;28;20114;-68
2021/08/27 06:05:59;;;;;;;9.38;3.33;;;;;;;;;;5033661;28;20037;-68
2021/08/27 06:08:25;;;;;;;9.18;2.70;;;;;;;;;;5029015;28;20073;-68
2021/08/27 06:10:51;;;;;;;13.10;2.70;;;;;;;;;;5039504;28;20029;-68
2021/08/27 06:13:17;;;;;;;9.30;2.42;;;;;;;;;;5033717;28;20049;-68
2021/08/27 06:15:44;;;;;;;6.28;1.63;;;;;;;;;;5029840;28;20482;-68
2021/08/27 06:18:10;;;;;;;6.63;1.88;;;;;;;;;;5024994;28;20056;-68
2021/08/27 06:20:37;;;;;;;9.18;1.90;;;;;;;;;;5036460;28;20042;-68
2021/08/27 06:23:03;;;;;;;7.18;1.75;;;;;;;;;;5033799;28;20512;-68
2021/08/27 06:25:29;;;;;;;11.68;3.00;;;;;;;;;;5034907;28;20473;-68
2021/08/27 06:27:55;;;;;;;10.73;3.92;;;;;;;;;;5030488;28;20102;-68
2021/08/27 06:30:21;;;;;;;13.15;2.78;;;;;;;;;;5038744;28;20041;-68
2021/08/27 06:32:48;;;;;;;7.82;2.20;;;;;;;;;;5034990;28;20041;-69
2021/08/27 06:35:14;;;;;;;12.00;2.28;;;;;;;;;;5037950;28;20090;-69
2021/08/27 06:40:24;;;;;;;;;;;;;;;;;;5039548;28;20042;-69
2021/08/27 06:42:50;;;;;;;12.65;2.38;;;;;;;;;;5033250;28;19924;-69
2021/08/27 06:45:16;;;;;;;13.20;2.40;;;;;;;;;;5027088;28;20040;-69
2021/08/27 06:47:43;;;;;;;12.57;2.47;;;;;;;;;;5040123;28;20049;-69
2021/08/27 06:50:09;;;;;;;9.60;2.20;;;;;;;;;;5035170;28;20053;-69
2021/08/27 06:52:35;;;;;;;14.48;2.60;;;;;;;;;;5030514;28;20504;-69
2021/08/27 06:55:02;;;;;;;9.57;2.22;;;;;;;;;;5027420;28;20439;-69
2021/08/27 06:57:28;;;;;;;8.93;2.50;;;;;;;;;;5016029;28;20128;-69
2021/08/27 06:59:54;;;;;;;10.18;1.98;;;;;;;;;;5031434;28;20045;-69
2021/08/27 07:02:20;;;;;;;7.55;1.63;;;;;;;;;;5033274;28;20044;-69
2021/08/27 07:04:46;;;;;;;7.30;2.00;;;;;;;;;;5028457;28;20068;-69
2021/08/27 07:07:12;;;;;;;13.07;2.60;;;;;;;;;;5037546;28;20046;-69
2021/08/27 07:09:39;;;;;;;9.23;2.22;;;;;;;;;;5026431;28;20044;-69
2021/08/27 07:12:07;;;;;;;11.57;2.15;;;;;;;;;;5033529;28;20049;-69
2021/08/27 07:14:33;;;;;;;8.77;2.08;;;;;;;;;;5030467;28;20052;-69
2021/08/27 07:16:59;;;;;;;7.53;2.38;;;;;;;;;;5033190;28;20041;-70
2021/08/27 07:19:25;;;;;;;8.73;2.70;;;;;;;;;;5031177;28;20501;-70
2021/08/27 07:21:52;;;;;;;8.48;2.42;;;;;;;;;;5032828;28;20045;-69
2021/08/27 07:24:18;;;;;;;12.85;2.33;;;;;;;;;;5032674;28;20191;-69
2021/08/27 07:26:45;;;;;;;9.73;2.70;;;;;;;;;;5028147;28;20432;-70
2021/08/27 07:29:11;;;;;;;10.35;2.05;;;;;;;;;;5030287;28;20383;-70
2021/08/27 07:31:37;;;;;;;9.40;2.25;;;;;;;;;;5026399;28;20047;-70
2021/08/27 07:34:03;;;;;;;9.55;2.15;;;;;;;;;;5034009;28;20091;-71
2021/08/27 07:36:29;;;;;;;10.25;1.90;;;;;;;;;;5024819;28;20060;-71
2021/08/27 07:38:55;;;;;;;13.95;2.28;;;;;;;;;;5033322;28;20052;-71
2021/08/27 07:41:21;;;;;;;10.15;1.83;;;;;;;;;;5026002;28;20038;-71
2021/08/27 07:43:47;;;;;;;10.95;2.20;;;;;;;;;;5031244;28;20045;-71
2021/08/27 07:46:13;;;;;;;10.15;1.80;;;;;;;;;;5024301;28;20041;-71
2021/08/27 07:48:39;;;;;;;9.55;1.75;;;;;;;;;;5035363;28;20045;-71
2021/08/27 07:51:05;;;;;;;10.68;2.00;;;;;;;;;;5029292;28;20072;-71
2021/08/27 07:53:32;;;;;;;7.78;1.90;;;;;;;;;;5033393;28;20351;-70
2021/08/27 07:55:58;;;;;;;10.38;1.83;;;;;;;;;;5028441;28;20040;-70
2021/08/27 07:58:24;;;;;;;8.75;1.80;;;;;;;;;;5036552;28;20042;-70
2021/08/27 08:00:50;;;;;;;9.85;1.88;;;;;;;;;;5033797;28;20144;-70
2021/08/27 08:03:16;;;;;;;12.80;2.08;;;;;;;;;;5026636;28;20045;-70
2021/08/27 08:05:43;;;;;;;9.27;1.63;;;;;;;;;;5032837;28;20088;-70
2021/08/27 08:08:09;;;;;;;14.55;2.38;;;;;;;;;;5030747;28;20057;-70
2021/08/27 08:10:35;;;;;;;9.40;1.25;;;;;;;;;;5034771;28;20045;-71
2021/08/27 08:13:01;;;;;;;8.05;1.08;;;;;;;;;;5023366;28;20064;-70
2021/08/27 08:15:28;;;;;;;6.93;1.42;;;;;;;;;;5032298;28;20124;-70
2021/08/27 08:17:55;;;;;;;5.20;1.00;;;;;;;;;;5029675;28;20045;-70
2021/08/27 08:20:21;;;;;;;5.60;1.00;;;;;;;;;;5018526;28;20060;-70
2021/08/27 08:22:47;;;;;;;4.95;0.82;;;;;;;;;;5023919;28;20056;-70
2021/08/27 08:25:13;;;;;;;5.30;1.00;;;;;;;;;;5033746;28;20059;-70
2021/08/27 08:27:39;;;;;;;5.68;0.88;;;;;;;;;;5013627;28;20048;-70
2021/08/27 08:30:05;;;;;;;5.97;1.45;;;;;;;;;;5029214;28;20311;-70
2021/08/27 08:32:31;;;;;;;4.95;0.90;;;;;;;;;;5030711;28;20359;-70
2021/08/27 08:34:57;;;;;;;7.57;0.90;;;;;;;;;;5034824;28;20387;-70
2021/08/27 08:37:24;;;;;;;9.05;1.10;;;;;;;;;;5033775;28;20046;-70
2021/08/27 08:39:50;;;;;;;3.70;0.82;;;;;;;;;;5028730;28;20494;-70
2021/08/27 08:42:16;;;;;;;7.78;1.15;;;;;;;;;;5033405;28;20037;-70
2021/08/27 08:44:42;;;;;;;5.10;1.30;;;;;;;;;;5028042;28;20132;-68
2021/08/27 08:47:11;;;;;;;4.07;1.00;;;;;;;;;;5036503;28;20059;-68
2021/08/27 08:49:38;;;;;;;7.40;1.48;;;;;;;;;;5030651;28;20128;-68
2021/08/27 08:52:04;;;;;;;6.30;1.45;;;;;;;;;;5034873;28;20565;-68
2021/08/27 08:54:31;;;;;;;6.70;1.23;;;;;;;;;;5031296;28;20128;-68
2021/08/27 08:56:57;;;;;;;7.82;1.30;;;;;;;;;;5036651;28;20314;-68
2021/08/27 08:59:24;;;;;;;5.60;1.27;;;;;;;;;;5032235;28;20042;-68
2021/08/27 09:01:50;;;;;;;5.72;1.27;;;;;;;;;;5039408;28;20069;-68
2021/08/27 09:04:16;;;;;;;7.22;1.52;;;;;;;;;;5032659;28;20063;-68
2021/08/27 09:06:42;;;;;;;6.28;1.15;;;;;;;;;;5032655;28;20145;-68
2021/08/27 09:09:09;;;;;;;6.28;1.42;;;;;;;;;;5031119;28;20045;-67
2021/08/27 09:11:35;;;;;;;9.75;1.48;;;;;;;;;;5037777;28;20091;-67
2021/08/27 09:14:02;;;;;;;6.80;1.20;;;;;;;;;;5030926;28;20083;-68
2021/08/27 09:16:30;;;;;;;7.53;1.30;;;;;;;;;;5039308;28;20463;-68
2021/08/27 09:18:56;;;;;;;9.57;1.40;;;;;;;;;;5037199;28;20067;-68
2021/08/27 09:21:29;;;;;;;7.47;1.30;;;;;;;;;;5035160;28;20037;-66
2021/08/27 09:24:11;;;;;;;7.90;1.97;;;;;;;;;;5039593;28;20090;-67
2021/08/27 09:26:37;;;;;;;7.13;1.73;;;;;;;;;;5029266;28;20047;-67
2021/08/27 09:29:03;;;;;;;6.22;1.80;;;;;;;;;;5034117;28;20047;-67
2021/08/27 09:31:33;;;;;;;8.48;2.20;;;;;;;;;;5030473;28;20391;-67
2021/08/27 09:33:59;;;;;;;6.00;1.52;;;;;;;;;;5035369;28;20500;-67
2021/08/27 09:36:25;;;;;;;7.72;1.83;;;;;;;;;;5034636;28;20037;-67
2021/08/27 09:39:00;;;;;;;8.95;1.90;;;;;;;;;;5036585;28;20033;-67
2021/08/27 09:41:27;;;;;;;7.65;1.75;;;;;;;;;;5030101;28;20128;-67
2021/08/27 09:43:55;;;;;;;4.05;1.33;;;;;;;;;;5036045;28;20049;-67
2021/08/27 09:46:33;;;;;;;6.68;1.90;;;;;;;;;;5027566;28;20091;-67
2021/08/27 09:49:00;;;;;;;8.25;1.70;;;;;;;;;;5039828;28;20057;-67
2021/08/27 09:51:42;;;;;;;5.60;1.60;;;;;;;;;;5030692;28;20048;-67
2021/08/27 09:54:08;;;;;;;9.20;2.08;;;;;;;;;;5037033;28;20532;-67
2021/08/27 09:56:44;;;;;;;7.45;1.48;;;;;;;;;;5026933;28;20044;-67
2021/08/27 09:59:10;;;;;;;6.75;1.52;;;;;;;;;;5039706;28;20048;-67
2021/08/27 10:01:45;;;;;;;9.88;2.08;;;;;;;;;;5029778;28;20524;-68
2021/08/27 10:04:11;;;;;;;6.28;1.63;;;;;;;;;;5034907;28;20045;-68
2021/08/27 10:06:38;;;;;;;5.47;1.48;;;;;;;;;;5028420;28;20045;-68
2021/08/27 10:09:05;;;;;;;8.27;2.17;;;;;;;;;;5040886;28;20045;-69
2021/08/27 10:11:31;;;;;;;7.28;1.80;;;;;;;;;;5028797;28;20103;-69
2021/08/27 10:13:57;;;;;;;8.15;1.77;;;;;;;;;;5036883;28;20083;-69
2021/08/27 10:16:24;;;;;;;10.48;2.00;;;;;;;;;;5030123;28;20482;-69
2021/08/27 10:18:50;;;;;;;10.85;1.85;;;;;;;;;;5033998;28;20057;-69
2021/08/27 10:21:16;;;;;;;6.93;1.73;;;;;;;;;;5030629;28;20053;-69
2021/08/27 10:23:46;;;;;;;7.72;2.30;;;;;;;;;;5030029;28;20434;-68
2021/08/27 10:26:22;;;;;;;6.13;2.00;;;;;;;;;;5034904;28;20132;-69
2021/08/27 10:28:49;;;;;;;6.53;1.95;;;;;;;;;;5028705;28;20068;-69
2021/08/27 10:31:15;;;;;;;6.10;2.08;;;;;;;;;;5033070;28;20613;-68
2021/08/27 10:33:42;;;;;;;9.82;2.13;;;;;;;;;;5029116;28;20072;-68
2021/08/27 10:36:23;;;;;;;5.22;1.55;;;;;;;;;;5036524;28;20454;-68
2021/08/27 10:38:51;;;;;;;7.60;1.85;;;;;;;;;;5025815;28;20045;-68
2021/08/27 10:41:18;;;;;;;8.80;2.03;;;;;;;;;;5029737;28;20063;-68
2021/08/27 10:44:04;;;;;;;6.40;1.88;;;;;;;;;;5031617;28;20103;-71
2021/08/27 10:46:59;;;;;;;7.82;1.58;;;;;;;;;;5034106;28;20128;-70
2021/08/27 10:49:44;;;;;;;5.70;1.70;;;;;;;;;;5029808;28;20141;-69
2021/08/27 10:52:10;;;;;;;;;;;;;;;;;;5033690;28;20049;-69
2021/08/27 10:54:55;;;;;;;6.30;1.90;;;;;;;;;;5027835;28;19928;-69
2021/08/27 10:57:22;;;;;;;6.68;1.30;;;;;;;;;;5036265;28;20128;-69
2021/08/27 10:59:49;;;;;;;4.82;1.40;;;;;;;;;;5028401;28;20049;-68
2021/08/27 11:02:15;;;;;;;5.78;1.30;;;;;;;;;;5032288;28;20040;-69
2021/08/27 11:04:42;;;;;;;4.25;1.35;;;;;;;;;;5027816;28;20025;-69
2021/08/27 11:07:19;;;;;;;5.13;1.40;;;;;;;;;;5033872;28;20037;-68
2021/08/27 11:10:07;;;;;;;6.05;1.20;;;;;;;;;;5028230;28;20106;-68
2021/08/27 11:12:36;;;;;;;5.25;1.42;;;;;;;;;;5032525;28;20064;-69
2021/08/27 11:15:20;;;;;;;4.78;1.00;;;;;;;;;;5027579;28;20083;-68
2021/08/27 11:18:04;;;;;;;6.32;1.50;;;;;;;;;;5029969;28;20430;-67
2021/08/27 11:20:30;;;;;;;5.80;1.33;;;;;;;;;;5031684;28;20099;-66
2021/08/27 11:22:57;;;;;;;7.43;1.23;;;;;;;;;;5033763;28;20132;-66
2021/08/27 11:25:24;;;;;;;5.53;1.50;;;;;;;;;;5023258;28;20060;-66
2021/08/27 11:28:08;;;;;;;5.65;1.33;;;;;;;;;;5031976;28;20548;-67
2021/08/27 11:30:35;;;;;;;5.97;1.60;;;;;;;;;;5030349;28;20045;-66
2021/08/27 11:33:01;;;;;;;4.43;1.30;;;;;;;;;;5031264;28;20045;-67
2021/08/27 11:35:29;;;;;;;5.30;1.40;;;;;;;;;;5031051;28;20033;-67
2021/08/27 11:37:56;;;;;;;7.95;1.33;;;;;;;;;;5033246;28;20441;-67
2021/08/27 11:40:22;;;;;;;5.75;1.55;;;;;;;;;;5029701;28;20444;-66
2021/08/27 11:42:53;;;;;;;5.75;1.40;;;;;;;;;;5033758;28;20045;-67
2021/08/27 11:45:21;;;;;;;7.15;1.40;;;;;;;;;;5029767;28;20433;-66
2021/08/27 11:47:48;;;;;;;9.20;2.17;;;;;;;;;;5035075;28;20061;-69
2021/08/27 11:50:14;;;;;;;8.63;1.80;;;;;;;;;;5026771;28;20045;-70
2021/08/27 11:52:41;;;;;;;6.35;1.50;;;;;;;;;;5032531;28;20493;-71
2021/08/27 11:55:11;;;;;;;7.68;1.50;;;;;;;;;;5028980;28;20049;-73
2021/08/27 11:57:47;;;;;;;6.78;1.75;;;;;;;;;;5033482;28;20053;-72
2021/08/27 12:00:13;;;;;;;5.15;1.60;;;;;;;;;;5032558;28;20464;-71
2021/08/27 12:02:40;;;;;;;5.20;1.70;;;;;;;;;;5027891;28;20568;-70
2021/08/27 12:05:10;;;;;;;10.30;2.00;;;;;;;;;;5032765;28;20604;-70
2021/08/27 12:07:40;;;;;;;8.10;1.67;;;;;;;;;;5031217;28;20064;-70
2021/08/27 12:10:13;;;;;;;12.25;2.00;;;;;;;;;;5032137;28;20054;-70
2021/08/27 12:12:40;;;;;;;7.72;1.65;;;;;;;;;;5028316;28;20044;-71
2021/08/27 12:15:08;;;;;;;9.45;1.88;;;;;;;;;;5036701;28;20505;-71
2021/08/27 12:17:34;;;;;;;11.38;1.88;;;;;;;;;;5030777;28;20053;-71
2021/08/27 12:20:01;;;;;;;10.13;1.85;;;;;;;;;;5015440;28;20053;-71
2021/08/27 12:22:32;;;;;;;9.48;2.28;;;;;;;;;;5009221;28;20048;-71
2021/08/27 12:24:58;;;;;;;9.35;1.90;;;;;;;;;;5036672;28;20088;-71
2021/08/27 12:27:26;;;;;;;8.25;2.03;;;;;;;;;;5030188;28;20045;-70
2021/08/27 12:30:11;;;;;;;6.80;1.85;;;;;;;;;;5034967;28;20053;-70
2021/08/27 12:32:38;;;;;;;12.27;1.90;;;;;;;;;;5032677;28;20049;-70
2021/08/27 12:35:06;;;;;;;9.32;1.65;;;;;;;;;;5039296;28;20053;-70
2021/08/27 12:37:32;;;;;;;10.50;1.77;;;;;;;;;;5037598;28;20202;-70
2021/08/27 12:39:58;;;;;;;9.50;1.90;;;;;;;;;;5018577;28;20052;-70
2021/08/27 12:42:25;;;;;;;7.03;1.52;;;;;;;;;;5030364;28;20559;-70
2021/08/27 12:45:02;;;;;;;8.88;1.70;;;;;;;;;;5037116;28;20068;-69
2021/08/27 12:47:28;;;;;;;10.82;2.00;;;;;;;;;;5021414;28;20644;-70
2021/08/27 12:49:59;;;;;;;10.10;1.50;;;;;;;;;;5036402;28;20052;-71
2021/08/27 12:52:25;;;;;;;9.13;1.52;;;;;;;;;;5031935;28;20046;-70
2021/08/27 12:54:51;;;;;;;8.75;1.80;;;;;;;;;;5037648;28;20545;-69
2021/08/27 12:57:17;;;;;;;6.70;1.67;;;;;;;;;;5036899;28;20052;-69
2021/08/27 13:00:04;;;;;;;12.23;1.83;;;;;;;;;;5031525;28;20139;-70
2021/08/27 13:02:37;;;;;;;6.40;1.42;;;;;;;;;;5033694;28;20187;-69
2021/08/27 13:05:07;;;;;;;6.82;2.15;;;;;;;;;;5034671;28;20132;-69
2021/08/27 13:07:34;;;;;;;5.18;1.58;;;;;;;;;;5010007;28;20619;-69
2021/08/27 13:10:17;;;;;;;8.52;1.85;;;;;;;;;;5031495;28;20045;-70
2021/08/27 13:12:44;;;;;;;8.18;1.60;;;;;;;;;;5034213;28;20038;-70
2021/08/27 13:15:27;;;;;;;7.35;1.60;;;;;;;;;;5036405;28;20041;-71
2021/08/27 13:18:00;;;;;;;5.03;1.70;;;;;;;;;;5035307;28;20037;-70
2021/08/27 13:20:27;;;;;;;3.78;1.20;;;;;;;;;;5029383;28;20041;-70
2021/08/27 13:22:54;;;;;;;6.68;1.27;;;;;;;;;;5035690;28;20049;-70
2021/08/27 13:25:26;;;;;;;7.38;1.00;;;;;;;;;;5031614;28;20076;-70
2021/08/27 13:27:53;;;;;;;4.18;1.15;;;;;;;;;;5033166;28;20049;-69
2021/08/27 13:30:19;;;;;;;5.57;1.30;;;;;;;;;;5026574;28;20049;-70
2021/08/27 13:32:50;;;;;;;6.97;1.13;;;;;;;;;;5034820;28;20041;-69
2021/08/27 13:35:18;;;;;;;4.63;1.38;;;;;;;;;;5037372;28;20360;-69
2021/08/27 13:37:45;;;;;;;7.72;1.90;;;;;;;;;;5035369;28;20049;-70
2021/08/27 13:40:12;;;;;;;4.82;1.35;;;;;;;;;;5028815;28;20094;-70
2021/08/27 13:42:38;;;;;;;5.93;1.75;;;;;;;;;;5034417;28;20041;-69
2021/08/27 13:45:07;;;;;;;6.75;1.38;;;;;;;;;;5032263;28;20128;-69
2021/08/27 13:47:33;;;;;;;8.27;1.45;;;;;;;;;;5036097;28;20395;-69
2021/08/27 13:49:59;;;;;;;11.13;1.55;;;;;;;;;;5026979;28;20422;-69
2021/08/27 13:52:25;;;;;;;8.48;1.50;;;;;;;;;;5041411;28;20385;-69
2021/08/27 13:54:51;;;;;;;5.55;1.30;;;;;;;;;;5024901;28;20041;-69
2021/08/27 13:57:17;;;;;;;6.55;1.58;;;;;;;;;;5034802;28;20485;-69
2021/08/27 13:59:43;;;;;;;5.90;1.35;;;;;;;;;;5032038;28;20486;-70
2021/08/27 14:02:13;;;;;;;7.15;1.20;;;;;;;;;;5030696;28;20063;-69
2021/08/27 14:04:39;;;;;;;6.97;1.40;;;;;;;;;;5033325;28;20060;-69
2021/08/27 14:07:05;;;;;;;12.55;1.60;;;;;;;;;;5030811;28;20416;-69
2021/08/27 14:09:32;;;;;;;10.25;1.70;;;;;;;;;;5032415;28;20048;-69
2021/08/27 14:11:58;;;;;;;13.88;1.67;;;;;;;;;;5029854;28;20042;-69
2021/08/27 14:14:24;;;;;;;8.48;1.25;;;;;;;;;;5033841;28;20063;-69
2021/08/27 14:16:50;;;;;;;5.75;1.35;;;;;;;;;;5028377;28;20041;-69
2021/08/27 14:19:16;;;;;;;7.00;1.10;;;;;;;;;;5034758;28;20418;-69
2021/08/27 14:21:42;;;;;;;6.70;1.75;;;;;;;;;;5030166;28;20505;-69
2021/08/27 14:24:08;;;;;;;9.27;1.42;;;;;;;;;;5038228;28;20033;-69
2021/08/27 14:26:34;;;;;;;6.95;1.00;;;;;;;;;;5028959;28;20038;-70
2021/08/27 14:29:00;;;;;;;6.47;1.13;;;;;;;;;;5016645;28;20472;-70
2021/08/27 14:31:26;;;;;;;5.15;1.35;;;;;;;;;;5028736;28;20474;-69
2021/08/27 14:33:58;;;;;;;4.63;1.00;;;;;;;;;;5038935;28;20440;-69
2021/08/27 14:36:24;;;;;;;6.20;1.38;;;;;;;;;;5028913;28;20044;-69
2021/08/27 14:38:50;;;;;;;4.57;1.40;;;;;;;;;;5032397;28;20049;-69
2021/08/27 14:41:16;;;;;;;5.05;1.00;;;;;;;;;;5036321;28;20037;-69
2021/08/27 14:43:43;;;;;;;6.50;1.23;;;;;;;;;;5027726;28;20132;-69
2021/08/27 14:46:09;;;;;;;5.00;0.80;;;;;;;;;;5041849;28;20049;-69
2021/08/27 14:48:36;;;;;;;3.85;0.98;;;;;;;;;;5030472;28;20116;-70